createdAt,value
2022-11-15T00:28:21.246Z,7.31
2022-11-15T00:58:21.257Z,7.06
2022-11-15T01:28:21.259Z,6.63
2022-11-15T01:58:21.259Z,6.38
2022-11-15T02:28:21.261Z,6.38
2022-11-15T02:58:21.263Z,6.31
2022-11-15T03:28:21.255Z,6.19
2022-11-15T03:58:21.283Z,5.81
2022-11-15T04:28:21.277Z,5.25
2022-11-15T04:58:21.276Z,4.5
2022-11-15T05:28:21.286Z,4.63
2022-11-15T05:58:21.287Z,4.88
2022-11-15T06:28:21.282Z,4.94
2022-11-15T06:58:21.334Z,5.31
2022-11-15T07:28:21.308Z,5.5
2022-11-15T07:58:21.301Z,6.31
2022-11-15T08:28:21.306Z,7.25
2022-11-15T08:58:21.315Z,8.38
2022-11-15T09:28:21.321Z,9.31
2022-11-15T09:58:21.333Z,10.25
2022-11-15T10:28:21.329Z,11
2022-11-15T10:58:21.327Z,11.81
2022-11-15T11:28:21.339Z,12.81
2022-11-15T11:58:21.327Z,14.5
2022-11-15T12:28:21.347Z,15.63
2022-11-15T12:58:21.333Z,15.94
2022-11-15T13:28:21.343Z,15.31
2022-11-15T13:58:24.189Z,14.94
2022-11-15T14:28:21.354Z,14.63
2022-11-15T14:58:21.361Z,13.44
2022-11-15T15:28:21.391Z,12.25
2022-11-15T15:58:21.387Z,11.31
2022-11-15T16:28:21.384Z,11.06
2022-11-15T16:58:21.388Z,10.44
2022-11-15T17:28:21.435Z,10.31
2022-11-15T17:58:21.463Z,10.19
2022-11-15T18:28:21.411Z,10.06
2022-11-15T18:58:21.405Z,10
2022-11-15T19:28:21.422Z,9.88
2022-11-15T19:58:21.424Z,10
2022-11-15T20:28:21.412Z,9.63
2022-11-15T20:58:21.428Z,9.63
2022-11-15T21:28:21.431Z,9.38
2022-11-15T21:58:21.439Z,8.88
2022-11-15T22:28:21.433Z,8.31
2022-11-15T22:58:21.449Z,8
2022-11-15T23:28:21.439Z,7.5
2022-11-15T23:58:21.453Z,7.19
